Time;durP1;ratioP1;P1;durP2;ratioP2;P2;SDS_P1;SDS_P2;PMS_P1;PMS_P2;Temp;Humidity;BMP_temperature;BMP_pressure;BME280_temperature;BME280_humidity;BME280_pressure;Samples;Min_cycle;Max_cycle;Signal;HPM_P1;HPM_P2
2021/12/27 00:01:38;;;;;;;151.70;49.40;;;;;;;-10.03;72.64;100167.93;51546;1308;1017308;-61
2021/12/27 00:04:09;;;;;;;145.10;53.00;;;;;;;-10.07;72.56;100167.59;51524;1311;1016725;-61
2021/12/27 00:06:41;;;;;;;125.90;48.20;;;;;;;-10.09;72.69;100167.59;51558;1315;1016490;-62
2021/12/27 00:09:13;;;;;;;132.10;50.00;;;;;;;-10.09;72.97;100163.90;51512;1315;1016575;-60
2021/12/27 00:11:46;;;;;;;136.90;49.70;;;;;;;-10.09;72.94;100158.13;51432;1314;1016023;-62
2021/12/27 00:14:17;;;;;;;142.00;49.60;;;;;;;-10.11;72.62;100155.77;51544;1311;1017075;-61
2021/12/27 00:16:48;;;;;;;142.10;49.60;;;;;;;-10.13;72.60;100150.92;51457;1315;1016615;-61
2021/12/27 00:19:19;;;;;;;130.70;47.60;;;;;;;-10.16;72.40;100153.39;51552;1313;1016337;-62
2021/12/27 00:21:50;;;;;;;129.20;48.10;;;;;;;-10.23;72.22;100155.67;51414;1314;1016018;-62
2021/12/27 00:24:22;;;;;;;126.40;47.60;;;;;;;-10.26;72.42;100152.96;51565;1308;1016036;-62
2021/12/27 00:26:53;;;;;;;135.20;45.50;;;;;;;-10.27;72.81;100154.49;51602;1315;1016208;-61
2021/12/27 00:29:25;;;;;;;127.00;45.70;;;;;;;-10.25;72.92;100146.65;51579;1313;1018681;-60
2021/12/27 00:31:56;;;;;;;139.20;48.80;;;;;;;-10.24;73.03;100143.77;51594;1314;1016162;-62
2021/12/27 00:34:27;;;;;;;126.70;48.20;;;;;;;-10.24;72.85;100141.67;51499;1309;1016626;-62
2021/12/27 00:36:58;;;;;;;131.30;47.80;;;;;;;-10.27;72.92;100140.14;51727;1314;1016191;-62
2021/12/27 00:39:29;;;;;;;119.30;40.40;;;;;;;-10.31;72.91;100139.00;51941;1315;1016646;-60
2021/12/27 00:42:00;;;;;;;117.00;42.70;;;;;;;-10.37;72.87;100147.09;51726;1315;1016629;-61
2021/12/27 00:44:33;;;;;;;114.40;41.10;;;;;;;-10.38;72.63;100150.50;51759;1315;1016452;-61
2021/12/27 00:47:05;;;;;;;113.00;41.30;;;;;;;-10.40;72.72;100157.10;51460;1312;1016115;-61
2021/12/27 00:49:36;;;;;;;110.40;43.00;;;;;;;-10.42;72.59;100154.13;51414;1311;1016246;-60
2021/12/27 00:52:08;;;;;;;109.80;40.10;;;;;;;-10.44;72.31;100148.90;51491;1313;1016207;-63
2021/12/27 00:54:39;;;;;;;114.20;41.40;;;;;;;-10.48;72.28;100148.00;51448;1313;1016623;-61
2021/12/27 00:57:10;;;;;;;109.70;39.80;;;;;;;-10.50;72.40;100151.86;51601;1313;1018882;-62
2021/12/27 00:59:41;;;;;;;105.20;38.00;;;;;;;-10.53;72.47;100150.87;51512;1312;1016665;-62
2021/12/27 01:02:13;;;;;;;108.60;40.00;;;;;;;-10.55;72.57;100160.11;51473;1315;1016338;-61
2021/12/27 01:04:44;;;;;;;114.90;38.90;;;;;;;-10.59;72.47;100159.95;51469;1313;1016696;-63
2021/12/27 01:07:15;;;;;;;113.30;39.40;;;;;;;-10.61;72.45;100160.27;51500;1309;1016382;-61
2021/12/27 01:10:00;;;;;;;104.40;38.60;;;;;;;-10.62;72.42;100159.77;51440;1309;1016654;-62
2021/12/27 01:12:48;;;;;;;101.20;35.30;;;;;;;-10.64;72.34;100161.02;51426;1311;1016371;-63
2021/12/27 01:18:09;;;;;;;93.40;35.80;;;;;;;-10.73;72.23;100161.95;51475;1315;1016273;-62
2021/12/27 01:20:40;;;;;;;107.60;37.10;;;;;;;-10.73;72.28;100159.87;51514;1315;1016506;-62
2021/12/27 01:23:14;;;;;;;102.60;37.80;;;;;;;-10.73;72.25;100158.10;51393;1309;1016313;-61
2021/12/27 01:25:45;;;;;;;109.20;36.70;;;;;;;-10.77;72.11;100157.80;51415;1309;1017764;-61
2021/12/27 01:28:18;;;;;;;102.40;35.70;;;;;;;-10.79;72.09;100150.02;51430;1312;1016291;-62
2021/12/27 01:30:50;;;;;;;94.60;35.40;;;;;;;-10.79;72.31;100148.31;51441;1315;1016313;-62
2021/12/27 01:33:23;;;;;;;95.40;34.20;;;;;;;-10.84;71.97;100147.55;51463;1316;1016024;-61
2021/12/27 01:35:57;;;;;;;97.50;34.90;;;;;;;-10.86;72.28;100145.41;51444;1315;1016268;-61
2021/12/27 01:38:28;;;;;;;99.80;36.80;;;;;;;-10.83;72.37;100141.70;51428;1314;1016180;-61
2021/12/27 01:40:59;;;;;;;89.60;33.60;;;;;;;-10.82;72.74;100136.52;51472;1308;1020214;-62
2021/12/27 01:43:33;;;;;;;102.80;35.30;;;;;;;-10.79;72.75;100140.29;51618;1315;1016743;-61
2021/12/27 01:46:08;;;;;;;105.20;35.80;;;;;;;-10.78;72.63;100139.71;51520;1315;1016755;-61
2021/12/27 01:48:41;;;;;;;85.50;33.20;;;;;;;-10.78;72.53;100138.79;51591;1315;1016622;-62
2021/12/27 01:51:15;;;;;;;94.40;35.40;;;;;;;-10.77;72.65;100140.84;51614;1313;1020140;-61
2021/12/27 01:53:49;;;;;;;93.80;33.10;;;;;;;-10.76;72.60;100144.71;51618;1312;1016605;-61
2021/12/27 01:56:22;;;;;;;100.40;32.10;;;;;;;-10.73;72.75;100141.15;51467;1315;1016431;-60
2021/12/27 01:58:55;;;;;;;97.50;34.10;;;;;;;-10.73;72.66;100136.86;51437;1309;1016481;-61
2021/12/27 02:01:27;;;;;;;94.70;30.30;;;;;;;-10.71;72.75;100136.36;51465;1309;1017877;-60
2021/12/27 02:03:58;;;;;;;103.60;35.50;;;;;;;-10.71;72.36;100128.90;51502;1309;1016463;-60
2021/12/27 02:06:30;;;;;;;100.80;35.80;;;;;;;-10.71;72.67;100127.11;51441;1315;1016254;-61
2021/12/27 02:09:01;;;;;;;90.10;33.80;;;;;;;-10.70;72.69;100123.75;51464;1315;1016411;-60
2021/12/27 02:11:35;;;;;;;103.40;33.60;;;;;;;-10.68;72.95;100127.59;51500;1315;1016570;-61
2021/12/27 02:14:08;;;;;;;121.00;37.40;;;;;;;-10.67;72.57;100126.54;51639;1314;1016264;-61
2021/12/27 02:16:39;;;;;;;115.50;37.50;;;;;;;-10.75;72.19;100126.86;51538;1315;1016030;-60
2021/12/27 02:19:10;;;;;;;104.60;37.90;;;;;;;-10.80;72.30;100127.79;51504;1313;1016617;-60
2021/12/27 02:21:41;;;;;;;109.40;36.20;;;;;;;-10.84;72.41;100123.35;51487;1311;1016564;-61
2021/12/27 02:24:13;;;;;;;106.30;36.60;;;;;;;-10.84;72.49;100118.19;51406;1315;1016402;-61
2021/12/27 02:26:44;;;;;;;100.50;34.60;;;;;;;-10.83;72.65;100116.83;51493;1315;1016625;-61
2021/12/27 02:29:15;;;;;;;95.10;33.00;;;;;;;-10.80;72.79;100113.71;51437;1312;1020939;-63
2021/12/27 02:31:50;;;;;;;112.40;36.30;;;;;;;-10.79;72.67;100109.64;51570;1313;1015603;-61
2021/12/27 02:34:22;;;;;;;107.40;35.80;;;;;;;-10.79;72.74;100106.17;51560;1315;1016180;-61
2021/12/27 02:36:53;;;;;;;110.30;38.70;;;;;;;-10.81;72.70;100100.27;51459;1308;1016829;-60
2021/12/27 02:39:25;;;;;;;109.10;37.90;;;;;;;-10.83;72.63;100102.21;51542;1315;1017065;-62
2021/12/27 02:41:58;;;;;;;98.20;34.90;;;;;;;-10.85;72.53;100097.22;51616;1315;1015929;-62
2021/12/27 02:44:31;;;;;;;94.90;31.60;;;;;;;-10.88;72.56;100091.56;51622;1308;1016381;-61
2021/12/27 02:47:02;;;;;;;102.40;31.40;;;;;;;-10.91;72.82;100088.09;51585;1312;1016744;-63
2021/12/27 02:49:33;;;;;;;83.80;29.00;;;;;;;-10.95;72.96;100088.52;51491;1315;1016048;-61
2021/12/27 02:52:05;;;;;;;88.50;30.30;;;;;;;-10.97;72.96;100092.14;51486;1314;1016145;-61
2021/12/27 02:54:36;;;;;;;87.60;28.30;;;;;;;-10.98;73.31;100092.09;51465;1313;1016478;-62
2021/12/27 02:57:08;;;;;;;79.20;26.40;;;;;;;-10.97;73.46;100091.14;51475;1314;1019820;-62
2021/12/27 02:59:39;;;;;;;87.00;27.60;;;;;;;-10.98;73.61;100085.11;51518;1315;1016087;-61
2021/12/27 03:02:10;;;;;;;89.80;29.90;;;;;;;-10.98;73.60;100082.25;51510;1315;1016436;-62
2021/12/27 03:04:45;;;;;;;75.80;28.50;;;;;;;-10.96;73.59;100082.63;51503;1314;1015964;-62
2021/12/27 03:07:18;;;;;;;79.40;27.10;;;;;;;-10.95;73.66;100082.05;51635;1308;1016638;-62
2021/12/27 03:09:51;;;;;;;84.00;27.70;;;;;;;-10.93;73.70;100089.58;51600;1315;1016404;-61
2021/12/27 03:12:22;;;;;;;94.30;35.20;;;;;;;-10.93;73.60;100089.57;51623;1315;1016373;-62
2021/12/27 03:14:53;;;;;;;105.40;34.50;;;;;;;-10.93;73.53;100093.98;51538;1315;1016521;-62
2021/12/27 03:17:24;;;;;;;92.40;30.70;;;;;;;-10.93;73.39;100097.75;51462;1315;1016559;-61
2021/12/27 03:19:55;;;;;;;87.80;28.60;;;;;;;-10.92;73.33;100097.84;51481;1309;1016374;-62
2021/12/27 03:22:26;;;;;;;93.40;29.00;;;;;;;-10.91;73.45;100096.11;51774;1314;1016393;-61
2021/12/27 03:24:57;;;;;;;85.60;28.20;;;;;;;-10.89;73.48;100095.95;52062;1313;1016161;-60
2021/12/27 03:27:29;;;;;;;86.70;29.40;;;;;;;-10.86;73.43;100089.17;51614;1314;1017508;-61
2021/12/27 03:30:00;;;;;;;93.10;28.50;;;;;;;-10.83;73.53;100084.02;51528;1315;1016870;-60
2021/12/27 03:32:32;;;;;;;90.20;31.90;;;;;;;-10.83;73.30;100078.45;51571;1313;1016317;-62
2021/12/27 03:35:09;;;;;;;97.00;32.40;;;;;;;-10.84;73.37;100076.36;51605;1315;1016868;-61
2021/12/27 03:37:42;;;;;;;102.00;35.90;;;;;;;-10.85;73.35;100073.73;51467;1314;1017094;-60
2021/12/27 03:40:16;;;;;;;92.70;37.50;;;;;;;-10.86;73.41;100073.61;51600;1315;1016657;-61
2021/12/27 03:42:50;;;;;;;109.10;39.60;;;;;;;-10.85;73.51;100068.48;51592;1309;1016820;-62
2021/12/27 03:45:23;;;;;;;123.20;42.90;;;;;;;-10.85;73.42;100068.23;51619;1313;1016623;-61
2021/12/27 03:47:56;;;;;;;124.20;44.90;;;;;;;-10.84;73.48;100069.11;51521;1315;1016630;-63
2021/12/27 03:50:27;;;;;;;139.70;48.00;;;;;;;-10.82;73.49;100072.80;51552;1315;1016279;-62
2021/12/27 03:52:59;;;;;;;122.80;42.20;;;;;;;-10.80;73.57;100070.02;51533;1309;1016536;-61
2021/12/27 03:55:31;;;;;;;124.90;39.40;;;;;;;-10.77;73.60;100066.93;51510;1313;1016628;-62
2021/12/27 03:58:22;;;;;;;104.30;35.40;;;;;;;-10.75;73.40;100070.08;51541;1315;1016607;-62
2021/12/27 04:01:02;;;;;;;;;;;;;;;-10.72;73.55;100071.37;51481;1313;1016609;-62
2021/12/27 04:03:34;;;;;;;97.80;31.90;;;;;;;-10.71;73.58;100071.63;51469;1315;1019382;-62
2021/12/27 04:06:06;;;;;;;109.70;34.60;;;;;;;-10.71;73.46;100071.95;51530;1315;1016501;-63
2021/12/27 04:08:37;;;;;;;97.60;33.10;;;;;;;-10.73;73.48;100074.13;51478;1315;1016659;-62
2021/12/27 04:11:09;;;;;;;99.30;34.00;;;;;;;-10.73;73.45;100075.60;51478;1312;1016568;-61
2021/12/27 04:13:41;;;;;;;102.90;36.50;;;;;;;-10.72;73.44;100075.46;51504;1315;1015759;-60
2021/12/27 04:16:12;;;;;;;97.50;31.40;;;;;;;-10.74;73.54;100075.27;51449;1309;1019023;-62
2021/12/27 04:18:43;;;;;;;96.20;32.70;;;;;;;-10.72;73.61;100075.30;51478;1315;1016547;-59
2021/12/27 04:21:14;;;;;;;106.90;35.70;;;;;;;-10.71;73.57;100075.80;51649;1313;1015778;-59
2021/12/27 04:23:45;;;;;;;147.30;50.00;;;;;;;-10.71;73.46;100076.27;51559;1315;1019243;-60
2021/12/27 04:26:16;;;;;;;142.30;50.00;;;;;;;-10.73;73.41;100077.75;51583;1309;1016560;-60
2021/12/27 04:28:48;;;;;;;150.50;50.60;;;;;;;-10.73;73.42;100081.36;51483;1315;1016018;-60
2021/12/27 04:31:19;;;;;;;171.30;58.10;;;;;;;-10.72;73.52;100076.32;51605;1315;1016193;-61
2021/12/27 04:33:50;;;;;;;147.30;49.50;;;;;;;-10.70;73.47;100074.75;51638;1313;1016305;-61
2021/12/27 04:36:23;;;;;;;147.40;49.30;;;;;;;-10.70;73.33;100071.91;51554;1315;1016363;-60
2021/12/27 04:38:54;;;;;;;129.60;43.50;;;;;;;-10.69;73.43;100070.71;51480;1315;1016385;-59
2021/12/27 04:41:25;;;;;;;115.30;41.70;;;;;;;-10.67;73.38;100064.81;51595;1315;1017370;-61
2021/12/27 04:43:56;;;;;;;104.20;39.20;;;;;;;-10.67;73.30;100067.35;51647;1314;1016395;-61
2021/12/27 04:46:27;;;;;;;98.00;39.80;;;;;;;-10.67;73.03;100068.05;51558;1315;1016657;-60
2021/12/27 04:48:58;;;;;;;114.30;38.00;;;;;;;-10.68;73.14;100060.40;51551;1309;1017936;-60
2021/12/27 04:51:29;;;;;;;102.10;36.10;;;;;;;-10.66;73.11;100062.48;51414;1312;1017353;-60
2021/12/27 04:54:01;;;;;;;106.30;37.50;;;;;;;-10.64;73.01;100060.73;51506;1315;1016339;-61
2021/12/27 04:56:33;;;;;;;100.00;36.20;;;;;;;-10.65;73.03;100060.96;51418;1308;1016605;-60
2021/12/27 04:59:04;;;;;;;95.40;33.90;;;;;;;-10.63;73.17;100054.77;51471;1314;1016525;-60
2021/12/27 05:01:35;;;;;;;92.00;31.90;;;;;;;-10.63;73.13;100046.37;51527;1312;1016142;-59
2021/12/27 05:04:07;;;;;;;109.20;38.60;;;;;;;-10.63;73.19;100040.45;51581;1315;1016068;-60
2021/12/27 05:06:38;;;;;;;102.60;35.20;;;;;;;-10.63;73.23;100039.91;51402;1312;1016950;-60
2021/12/27 05:09:11;;;;;;;108.30;36.70;;;;;;;-10.65;73.15;100039.59;51463;1315;1016284;-60
2021/12/27 05:11:42;;;;;;;97.30;36.30;;;;;;;-10.69;73.09;100042.42;51475;1316;1016615;-61
2021/12/27 05:14:13;;;;;;;105.00;35.50;;;;;;;-10.75;73.23;100042.72;51484;1315;1019845;-60
2021/12/27 05:16:44;;;;;;;101.20;35.00;;;;;;;-10.80;73.21;100038.81;51525;1315;1016478;-60
2021/12/27 05:19:15;;;;;;;92.60;32.50;;;;;;;-10.81;73.35;100038.08;51545;1313;1016558;-60
2021/12/27 05:21:47;;;;;;;90.40;32.50;;;;;;;-10.81;73.30;100042.54;51537;1316;1019057;-60
2021/12/27 05:24:18;;;;;;;86.00;32.50;;;;;;;-10.80;73.39;100037.89;51430;1309;1015979;-58
2021/12/27 05:26:50;;;;;;;94.60;33.20;;;;;;;-10.79;73.34;100035.28;51520;1317;1016033;-60
2021/12/27 05:29:21;;;;;;;92.40;31.70;;;;;;;-10.79;73.49;100034.07;51507;1316;1018271;-61
2021/12/27 05:31:53;;;;;;;93.80;31.40;;;;;;;-10.78;73.44;100040.55;51334;1315;1016155;-60
2021/12/27 05:34:24;;;;;;;105.50;37.30;;;;;;;-10.79;73.40;100033.59;51456;1313;1016631;-62
2021/12/27 05:36:56;;;;;;;103.40;39.20;;;;;;;-10.80;73.47;100034.56;51516;1314;1016433;-62
2021/12/27 05:39:27;;;;;;;100.10;36.30;;;;;;;-10.81;73.48;100038.02;51452;1315;1016681;-61
2021/12/27 05:41:58;;;;;;;95.70;32.10;;;;;;;-10.81;73.57;100038.55;51451;1315;1016336;-65
2021/12/27 05:44:29;;;;;;;99.70;34.80;;;;;;;-10.79;73.57;100039.43;51451;1315;1017404;-62
2021/12/27 05:47:01;;;;;;;94.80;31.50;;;;;;;-10.79;73.66;100031.67;51402;1315;1016841;-60
2021/12/27 05:49:32;;;;;;;89.80;29.60;;;;;;;-10.81;73.63;100025.70;51458;1315;1016091;-62
2021/12/27 05:52:03;;;;;;;90.30;32.40;;;;;;;-10.83;73.71;100029.54;51350;1311;1016750;-64
2021/12/27 05:54:35;;;;;;;84.30;31.60;;;;;;;-10.85;73.83;100033.34;51351;1313;1016570;-61
2021/12/27 05:57:07;;;;;;;88.10;32.80;;;;;;;-10.85;73.65;100034.20;51491;1314;1016370;-61
2021/12/27 05:59:37;;;;;;;100.80;31.50;;;;;;;-10.84;73.66;100038.45;51479;1315;1016686;-62
2021/12/27 06:02:08;;;;;;;82.00;30.50;;;;;;;-10.84;73.82;100043.86;51389;1315;1016405;-61
2021/12/27 06:04:39;;;;;;;85.10;29.50;;;;;;;-10.81;73.63;100040.23;51386;1312;1016262;-61
2021/12/27 06:07:11;;;;;;;83.60;29.00;;;;;;;-10.80;73.62;100037.56;51548;1315;1016553;-62
2021/12/27 06:09:42;;;;;;;83.10;28.90;;;;;;;-10.78;73.71;100031.77;51965;1312;1016748;-63
2021/12/27 06:12:13;;;;;;;89.60;29.80;;;;;;;-10.74;73.75;100029.80;51562;1315;1017342;-63
2021/12/27 06:14:44;;;;;;;80.50;28.40;;;;;;;-10.72;73.61;100024.29;51360;1313;1016202;-62
2021/12/27 06:17:15;;;;;;;84.50;29.80;;;;;;;-10.72;73.50;100030.31;51289;1316;1016481;-62
2021/12/27 06:19:48;;;;;;;95.00;31.60;;;;;;;-10.70;73.51;100026.66;51345;1315;1016937;-62
2021/12/27 06:22:20;;;;;;;85.30;33.00;;;;;;;-10.69;73.50;100020.77;51381;1315;1016100;-62
2021/12/27 06:24:51;;;;;;;97.50;32.30;;;;;;;-10.68;73.71;100015.77;53221;1315;1015823;-63
2021/12/27 06:27:22;;;;;;;92.50;32.90;;;;;;;-10.67;73.54;100012.88;53230;1315;1015778;-60
2021/12/27 06:29:52;;;;;;;104.00;35.40;;;;;;;-10.67;73.65;100014.13;52673;1314;1016290;-60
2021/12/27 06:32:24;;;;;;;89.00;31.60;;;;;;;-10.68;73.71;100012.25;51338;1315;1019246;-59
2021/12/27 06:34:55;;;;;;;98.90;31.80;;;;;;;-10.69;73.71;100016.75;51609;1315;1016905;-62
2021/12/27 06:37:26;;;;;;;96.30;31.90;;;;;;;-10.71;73.94;100015.55;51396;1315;1016415;-62
2021/12/27 06:39:57;;;;;;;91.00;29.90;;;;;;;-10.73;73.99;100014.65;51492;1315;1017845;-62
2021/12/27 06:42:28;;;;;;;98.50;31.00;;;;;;;-10.75;74.14;100014.59;51508;1314;1015924;-62
2021/12/27 06:44:59;;;;;;;82.70;27.90;;;;;;;-10.75;74.27;100012.38;51334;1315;1017578;-62
2021/12/27 06:47:30;;;;;;;169.00;72.30;;;;;;;-10.74;74.44;100013.09;51333;1315;1016522;-62
2021/12/27 06:50:01;;;;;;;138.10;56.50;;;;;;;-10.73;74.49;100015.95;51473;1315;1016268;-62
2021/12/27 06:52:33;;;;;;;131.00;48.60;;;;;;;-10.72;74.61;100020.69;51430;1315;1016200;-62
2021/12/27 06:55:05;;;;;;;113.80;46.60;;;;;;;-10.70;74.46;100027.45;51357;1314;1017949;-62
2021/12/27 06:57:36;;;;;;;118.20;46.50;;;;;;;-10.66;74.61;100033.16;51378;1315;1016118;-62
2021/12/27 07:00:11;;;;;;;118.30;52.50;;;;;;;-10.63;74.59;100032.80;51436;1315;1016426;-63
2021/12/27 07:02:44;;;;;;;111.80;42.60;;;;;;;-10.63;74.66;100030.04;51441;1316;1016352;-62
2021/12/27 07:05:17;;;;;;;108.20;44.30;;;;;;;-10.62;74.64;100030.67;51346;1315;1015858;-62
2021/12/27 07:07:48;;;;;;;106.60;43.20;;;;;;;-10.60;74.67;100036.42;51358;1315;1019615;-61
2021/12/27 07:10:22;;;;;;;110.30;43.10;;;;;;;-10.58;74.77;100039.79;51406;1314;1016256;-62
2021/12/27 07:12:54;;;;;;;91.50;35.20;;;;;;;-10.57;74.65;100036.52;51335;1316;1018767;-62
2021/12/27 07:15:26;;;;;;;110.00;40.70;;;;;;;-10.56;74.68;100026.13;51326;1313;1016319;-62
2021/12/27 07:17:57;;;;;;;105.60;42.90;;;;;;;-10.54;74.71;100023.65;51372;1316;1016572;-62
2021/12/27 07:20:28;;;;;;;106.50;41.70;;;;;;;-10.52;74.74;100026.01;51416;1315;1019860;-62
2021/12/27 07:22:59;;;;;;;91.70;37.00;;;;;;;-10.51;74.71;100027.75;51314;1316;1016263;-62
2021/12/27 07:25:33;;;;;;;92.80;35.90;;;;;;;-10.49;74.79;100026.33;51328;1315;1016700;-62
2021/12/27 07:28:04;;;;;;;96.20;38.60;;;;;;;-10.49;74.96;100022.17;51408;1313;1016551;-62
2021/12/27 07:30:36;;;;;;;79.90;29.50;;;;;;;-10.47;75.28;100021.30;51351;1313;1016627;-63
2021/12/27 07:33:08;;;;;;;81.30;31.90;;;;;;;-10.43;75.54;100019.41;51404;1315;1016346;-62
2021/12/27 07:35:39;;;;;;;75.80;29.00;;;;;;;-10.39;75.61;100015.73;51814;1314;1016134;-62
2021/12/27 07:38:10;;;;;;;84.20;32.70;;;;;;;-10.35;75.73;100012.74;51482;1315;1017762;-63
2021/12/27 07:40:41;;;;;;;101.00;37.00;;;;;;;-10.32;75.72;100013.31;51361;1315;1016480;-62
2021/12/27 07:43:12;;;;;;;105.60;34.90;;;;;;;-10.27;75.83;100015.05;51417;1315;1016714;-62
2021/12/27 07:45:44;;;;;;;84.50;33.90;;;;;;;-10.22;75.88;100017.80;51330;1316;1017069;-62
2021/12/27 07:48:15;;;;;;;96.30;34.00;;;;;;;-10.17;75.77;100019.33;51374;1315;1015917;-62
2021/12/27 07:50:46;;;;;;;106.60;41.20;;;;;;;-10.13;75.81;100014.11;51361;1316;1016401;-62
2021/12/27 07:53:18;;;;;;;104.20;41.90;;;;;;;-10.09;76.00;100013.35;51322;1315;1017190;-62
2021/12/27 07:55:49;;;;;;;198.60;72.10;;;;;;;-10.06;76.04;100005.39;51462;1309;1016582;-62
2021/12/27 07:58:20;;;;;;;211.10;76.20;;;;;;;-10.02;76.25;99993.39;51377;1314;1016334;-62
2021/12/27 08:00:54;;;;;;;174.10;76.60;;;;;;;-9.95;76.40;99993.24;51405;1315;1016112;-62
2021/12/27 08:03:25;;;;;;;184.10;69.90;;;;;;;-9.90;76.34;99982.95;51463;1315;1016671;-62
2021/12/27 08:05:56;;;;;;;103.90;42.10;;;;;;;-9.83;76.48;99977.94;51353;1315;1019225;-62
2021/12/27 08:08:28;;;;;;;106.70;39.30;;;;;;;-9.79;76.46;99977.98;51361;1315;1017665;-62
2021/12/27 08:10:59;;;;;;;91.40;33.60;;;;;;;-9.75;76.69;99978.77;51396;1315;1016984;-62
2021/12/27 08:13:31;;;;;;;103.30;35.60;;;;;;;-9.69;76.66;99983.08;51348;1314;1017268;-62
2021/12/27 08:16:02;;;;;;;106.10;38.40;;;;;;;-9.64;76.74;99990.29;51398;1315;1018340;-62
2021/12/27 08:18:35;;;;;;;115.10;40.30;;;;;;;-9.59;76.66;99980.59;51432;1315;1018779;-63
2021/12/27 08:21:07;;;;;;;108.20;39.90;;;;;;;-9.54;76.63;99979.39;51431;1316;1016649;-62
2021/12/27 08:23:38;;;;;;;95.30;38.10;;;;;;;-9.49;76.72;99975.83;51336;1314;1019567;-61
2021/12/27 08:26:09;;;;;;;118.20;47.60;;;;;;;-9.44;76.84;99974.93;51440;1315;1016653;-62
2021/12/27 08:28:41;;;;;;;95.60;39.00;;;;;;;-9.39;76.94;99978.13;51373;1316;1016164;-62
2021/12/27 08:31:13;;;;;;;88.10;36.90;;;;;;;-9.34;77.02;99978.63;51402;1313;1016092;-62
2021/12/27 08:33:45;;;;;;;96.90;40.40;;;;;;;-9.30;76.86;99980.25;51494;1309;1016443;-62
2021/12/27 08:36:19;;;;;;;97.70;38.30;;;;;;;-9.25;77.13;99983.46;51501;1315;1016015;-62
2021/12/27 08:38:53;;;;;;;92.10;33.60;;;;;;;-9.20;77.23;99982.88;51562;1315;1016601;-62
2021/12/27 08:41:27;;;;;;;93.10;35.30;;;;;;;-9.15;77.48;99985.59;51484;1314;1016417;-61
2021/12/27 08:44:03;;;;;;;91.00;36.00;;;;;;;-9.09;77.47;99981.41;51394;1315;1016335;-62
2021/12/27 08:46:35;;;;;;;88.20;34.50;;;;;;;-9.02;77.62;99972.73;51387;1309;1016726;-62
2021/12/27 08:49:07;;;;;;;88.60;38.50;;;;;;;-8.96;77.65;99975.65;51458;1315;1016630;-62
2021/12/27 08:51:38;;;;;;;91.60;32.60;;;;;;;-8.88;77.78;99983.30;51388;1315;1016430;-62
2021/12/27 08:54:09;;;;;;;87.50;29.90;;;;;;;-8.82;77.80;99985.52;51377;1309;1016746;-62
2021/12/27 08:56:41;;;;;;;85.70;30.00;;;;;;;-8.76;77.78;99987.50;51439;1315;1016306;-62
2021/12/27 08:59:12;;;;;;;80.00;29.40;;;;;;;-8.70;77.81;99980.27;51686;1315;1016638;-62
2021/12/27 09:01:44;;;;;;;82.30;30.60;;;;;;;-8.65;77.85;99973.41;51763;1311;1016016;-62
2021/12/27 09:04:15;;;;;;;80.10;30.60;;;;;;;-8.58;77.85;99976.95;51625;1312;1015978;-62
2021/12/27 09:06:46;;;;;;;67.60;26.30;;;;;;;-8.51;77.97;99972.13;51376;1315;1016585;-62
2021/12/27 09:09:18;;;;;;;73.00;28.40;;;;;;;-8.45;78.01;99969.46;51452;1315;1016215;-62
2021/12/27 09:11:49;;;;;;;78.60;29.70;;;;;;;-8.38;78.01;99963.79;51520;1315;1016056;-63
2021/12/27 09:14:20;;;;;;;76.30;28.80;;;;;;;-8.31;78.03;99960.51;51394;1315;1016473;-62
2021/12/27 09:16:52;;;;;;;73.20;26.80;;;;;;;-8.23;78.06;99960.23;51460;1314;1016340;-62
2021/12/27 09:19:23;;;;;;;75.90;29.20;;;;;;;-8.15;78.22;99960.98;51471;1315;1016063;-62
2021/12/27 09:21:54;;;;;;;71.20;26.40;;;;;;;-8.09;78.27;99962.65;51429;1314;1016686;-60
2021/12/27 09:24:26;;;;;;;58.90;24.10;;;;;;;-8.02;78.31;99959.73;51486;1315;1016923;-60
2021/12/27 09:26:58;;;;;;;76.10;27.20;;;;;;;-7.95;78.28;99959.63;51580;1309;1016048;-60
2021/12/27 09:29:29;;;;;;;82.90;31.80;;;;;;;-7.90;78.21;99956.16;51488;1309;1015899;-60
2021/12/27 09:32:00;;;;;;;78.30;31.50;;;;;;;-7.85;78.18;99952.91;51467;1315;1016675;-63
2021/12/27 09:34:32;;;;;;;73.10;26.20;;;;;;;-7.78;78.31;99950.92;51373;1315;1016579;-60
2021/12/27 09:37:03;;;;;;;71.40;26.10;;;;;;;-7.72;78.30;99938.41;51405;1308;1019776;-62
2021/12/27 09:39:36;;;;;;;68.70;25.50;;;;;;;-7.65;78.36;99935.31;51440;1314;1019101;-62
2021/12/27 09:42:08;;;;;;;71.10;26.60;;;;;;;-7.59;78.42;99928.92;51504;1315;1016409;-62
2021/12/27 09:44:39;;;;;;;68.50;25.20;;;;;;;-7.51;78.38;99930.04;51439;1315;1019201;-63
2021/12/27 09:47:10;;;;;;;74.40;26.60;;;;;;;-7.46;78.42;99923.21;51497;1315;1016309;-62
2021/12/27 09:49:41;;;;;;;85.00;33.40;;;;;;;-7.40;78.48;99912.46;51468;1315;1016332;-63
2021/12/27 09:52:14;;;;;;;97.60;35.50;;;;;;;-7.34;78.38;99910.36;51506;1315;1016598;-62
2021/12/27 09:54:48;;;;;;;94.80;34.10;;;;;;;-7.28;78.37;99906.10;51437;1314;1016293;-62
2021/12/27 09:57:19;;;;;;;83.40;30.20;;;;;;;-7.22;78.36;99902.15;51486;1315;1016506;-60
2021/12/27 09:59:51;;;;;;;78.00;25.30;;;;;;;-7.16;78.21;99897.05;51459;1315;1018219;-61
2021/12/27 10:02:26;;;;;;;79.90;27.90;;;;;;;-7.11;78.23;99894.70;51519;1312;1016538;-60
2021/12/27 10:04:59;;;;;;;81.10;30.00;;;;;;;-7.06;78.25;99890.64;51513;1314;1019501;-62
2021/12/27 10:07:31;;;;;;;89.00;31.30;;;;;;;-7.00;78.24;99890.17;51412;1315;1016193;-62
2021/12/27 10:10:03;;;;;;;80.20;29.30;;;;;;;-6.95;78.25;99895.04;51478;1308;1017128;-62
2021/12/27 10:12:34;;;;;;;72.60;27.10;;;;;;;-6.90;78.24;99894.77;51427;1310;1016563;-60
2021/12/27 10:15:08;;;;;;;68.50;25.30;;;;;;;-6.85;78.24;99890.42;51519;1314;1016114;-62
2021/12/27 10:17:43;;;;;;;66.70;23.00;;;;;;;-6.80;78.12;99887.61;51580;1315;1016594;-62
2021/12/27 10:20:18;;;;;;;67.40;25.00;;;;;;;-6.73;78.08;99882.48;51493;1315;1016164;-60
2021/12/27 10:22:52;;;;;;;66.20;22.50;;;;;;;-6.67;77.95;99878.74;51542;1315;1016060;-60
2021/12/27 10:25:25;;;;;;;70.50;25.70;;;;;;;-6.62;77.85;99877.02;51486;1313;1016687;-60
2021/12/27 10:27:59;;;;;;;68.30;25.40;;;;;;;-6.59;77.77;99872.16;51607;1315;1017340;-60
2021/12/27 10:30:33;;;;;;;65.70;25.50;;;;;;;-6.55;77.97;99870.80;51644;1312;1015999;-61
2021/12/27 10:33:08;;;;;;;58.80;22.20;;;;;;;-6.50;77.86;99869.91;51510;1315;1016152;-61
2021/12/27 10:35:41;;;;;;;76.60;27.30;;;;;;;-6.45;77.85;99866.54;51467;1315;1016211;-61
2021/12/27 10:38:20;;;;;;;73.70;26.90;;;;;;;-6.40;77.87;99863.64;51430;1315;1015502;-62
2021/12/27 10:40:55;;;;;;;70.30;27.20;;;;;;;-6.35;77.87;99857.79;51530;1309;1018092;-61
2021/12/27 10:43:39;;;;;;;63.90;23.80;;;;;;;-6.28;77.78;99852.89;51499;1311;1016727;-61
2021/12/27 10:46:13;;;;;;;72.60;26.00;;;;;;;-6.22;77.77;99850.21;51477;1315;1016721;-61
2021/12/27 10:48:46;;;;;;;65.00;23.40;;;;;;;-6.18;77.77;99850.88;51454;1313;1016559;-61
2021/12/27 10:51:17;;;;;;;64.30;25.40;;;;;;;-6.14;77.82;99846.23;51546;1311;1016490;-61
2021/12/27 10:53:51;;;;;;;65.20;25.80;;;;;;;-6.10;77.85;99841.30;51481;1315;1016157;-61
2021/12/27 10:56:24;;;;;;;79.00;28.00;;;;;;;-6.05;77.68;99835.90;51523;1313;1016360;-61
2021/12/27 10:58:58;;;;;;;70.00;25.30;;;;;;;-6.00;77.64;99833.21;51569;1314;1017130;-62
2021/12/27 11:01:31;;;;;;;72.70;25.40;;;;;;;-5.96;77.64;99830.13;51579;1309;1015599;-62
2021/12/27 11:04:04;;;;;;;74.90;26.50;;;;;;;-5.91;77.55;99831.41;51521;1315;1018262;-61
2021/12/27 11:06:40;;;;;;;61.00;23.50;;;;;;;-5.87;77.53;99824.77;51460;1311;1016340;-61
2021/12/27 11:09:14;;;;;;;72.60;25.00;;;;;;;-5.83;77.37;99825.23;51448;1315;1018328;-61
2021/12/27 11:11:46;;;;;;;65.10;22.70;;;;;;;-5.78;77.29;99826.58;51565;1313;1016437;-61